Time;durP1;ratioP1;P1;durP2;ratioP2;P2;SDS_P1;SDS_P2;PMS_P1;PMS_P2;Temp;Humidity;BMP_temperature;BMP_pressure;BME280_temperature;BME280_humidity;BME280_pressure;Samples;Min_cycle;Max_cycle;Signal;HPM_P1;HPM_P2
2023/05/16 00:00:44;;;;;;;140.02;62.47;;;;;;;19.37;45.58;101079.47;5016678;28;20028;-78
2023/05/16 00:03:14;;;;;;;140.77;62.60;;;;;;;19.38;45.46;101076.75;5022044;28;20033;-78
2023/05/16 00:05:40;;;;;;;140.00;62.33;;;;;;;19.39;45.61;101081.13;5029959;28;20021;-78
2023/05/16 00:08:08;;;;;;;139.07;60.67;;;;;;;19.36;45.47;101077.75;5015510;28;20021;-78
2023/05/16 00:10:33;;;;;;;142.63;63.17;;;;;;;19.40;45.71;101085.50;5033269;28;20025;-78
2023/05/16 00:13:00;;;;;;;138.95;62.65;;;;;;;19.38;45.29;101092.66;5034555;28;20017;-78
2023/05/16 00:15:28;;;;;;;143.13;63.03;;;;;;;19.38;45.47;101091.81;5028226;28;20053;-78
2023/05/16 00:17:57;;;;;;;155.95;64.28;;;;;;;19.37;45.37;101090.94;5014796;28;20418;-77
2023/05/16 00:20:23;;;;;;;137.05;61.53;;;;;;;19.35;45.42;101089.31;5044013;28;20040;-77
2023/05/16 00:22:49;;;;;;;132.75;60.88;;;;;;;19.38;45.92;101097.09;5026321;28;20062;-78
2023/05/16 00:25:14;;;;;;;132.55;60.95;;;;;;;19.38;45.68;101103.25;5032915;28;20018;-77
2023/05/16 00:27:40;;;;;;;142.68;61.70;;;;;;;19.35;45.87;101098.09;5034132;28;20029;-78
2023/05/16 00:30:06;;;;;;;134.23;61.30;;;;;;;19.36;45.50;101091.88;5034222;28;20032;-78
2023/05/16 00:32:31;;;;;;;139.85;62.92;;;;;;;19.36;45.36;101089.22;5033871;28;20025;-78
2023/05/16 00:34:57;;;;;;;136.98;60.35;;;;;;;19.37;45.87;101090.06;5018636;28;20024;-77
2023/05/16 00:37:25;;;;;;;155.80;63.88;;;;;;;19.36;45.16;101099.81;5048109;28;20084;-77
2023/05/16 00:39:50;;;;;;;147.75;62.35;;;;;;;19.36;45.53;101101.59;5030765;28;20029;-77
2023/05/16 00:42:18;;;;;;;143.13;61.45;;;;;;;19.36;45.39;101106.88;5031847;28;20018;-78
2023/05/16 00:44:44;;;;;;;146.98;62.42;;;;;;;19.35;45.23;101092.78;5030922;28;20025;-78
2023/05/16 00:47:10;;;;;;;140.23;60.30;;;;;;;19.35;45.69;101103.38;5033122;28;20047;-78
2023/05/16 00:49:35;;;;;;;138.25;60.17;;;;;;;19.34;45.49;101104.31;5030677;28;20478;-76
2023/05/16 00:52:01;;;;;;;142.20;63.40;;;;;;;19.34;45.29;101100.81;5032108;28;20491;-77
2023/05/16 00:54:28;;;;;;;134.48;59.38;;;;;;;19.34;45.59;101106.97;5023843;28;20670;-78
2023/05/16 00:56:55;;;;;;;136.07;61.63;;;;;;;19.32;45.50;101103.53;5032804;28;20466;-78
2023/05/16 00:59:21;;;;;;;134.57;60.15;;;;;;;19.32;45.77;101105.31;5046956;28;20079;-77
2023/05/16 01:01:47;;;;;;;144.43;60.92;;;;;;;19.32;45.35;101103.53;5018352;22;1077243;-74
2023/05/16 01:04:12;;;;;;;157.80;63.28;;;;;;;19.32;45.51;101103.53;5049120;28;20017;-71
2023/05/16 01:06:38;;;;;;;137.80;61.63;;;;;;;19.32;45.83;101098.25;5032093;28;20025;-72
2023/05/16 01:09:04;;;;;;;139.88;59.92;;;;;;;19.31;45.44;101106.28;5032892;28;20025;-72
2023/05/16 01:11:32;;;;;;;134.35;59.08;;;;;;;19.31;45.32;101104.47;5051889;28;20025;-72
2023/05/16 01:14:26;;;;;;;135.95;60.22;;;;;;;19.31;45.38;101117.72;5033800;28;20064;-72
2023/05/16 01:17:06;;;;;;;136.45;60.30;;;;;;;19.29;45.53;101103.66;5016045;28;20017;-71
2023/05/16 01:19:59;;;;;;;134.40;60.47;;;;;;;19.30;45.37;101105.38;5019805;28;20029;-72
2023/05/16 01:22:30;;;;;;;133.13;60.25;;;;;;;19.29;45.00;101114.25;5030989;28;20022;-72
2023/05/16 01:25:05;;;;;;;134.63;59.22;;;;;;;19.30;46.00;101109.84;5032134;28;20045;-72
2023/05/16 01:27:31;;;;;;;136.00;59.78;;;;;;;19.28;45.22;101117.84;5033607;28;20061;-72
2023/05/16 01:29:57;;;;;;;139.05;59.85;;;;;;;19.27;45.87;101108.19;5013581;28;20042;-72
2023/05/16 01:32:22;;;;;;;137.88;59.42;;;;;;;19.28;45.78;101111.69;5013311;28;20033;-72
2023/05/16 01:34:49;;;;;;;137.82;60.88;;;;;;;19.28;45.64;101115.22;5023394;28;20044;-71
2023/05/16 01:37:22;;;;;;;142.88;61.33;;;;;;;19.26;45.17;101103.81;5014801;28;20043;-72
2023/05/16 01:39:55;;;;;;;129.70;59.42;;;;;;;19.26;45.68;101111.75;5025135;28;20020;-71
2023/05/16 01:42:23;;;;;;;138.20;59.80;;;;;;;19.25;45.88;101112.69;5021443;28;20121;-72
2023/05/16 01:45:09;;;;;;;149.50;62.22;;;;;;;19.27;45.77;101123.22;5028941;28;20029;-72
2023/05/16 01:47:37;;;;;;;136.95;60.47;;;;;;;19.26;45.16;101114.41;5008474;28;20117;-72
2023/05/16 01:50:19;;;;;;;135.18;59.47;;;;;;;19.25;45.39;101123.28;5030375;28;20478;-72
2023/05/16 01:53:10;;;;;;;135.13;59.55;;;;;;;19.24;45.10;101133.03;5014700;28;20033;-72
2023/05/16 01:55:43;;;;;;;139.90;61.17;;;;;;;19.24;45.44;101133.03;5012389;28;20081;-71
2023/05/16 01:58:09;;;;;;;135.20;59.67;;;;;;;19.24;45.39;101126.88;5012384;28;20115;-72
2023/05/16 02:00:34;;;;;;;133.45;58.75;;;;;;;19.23;45.38;101133.94;5026482;28;20033;-72
2023/05/16 02:03:00;;;;;;;136.90;59.90;;;;;;;19.23;45.13;101125.16;5017806;28;20049;-71
2023/05/16 02:05:25;;;;;;;135.93;60.85;;;;;;;19.23;45.27;101131.28;5019185;28;20031;-72
2023/05/16 02:07:51;;;;;;;139.07;59.67;;;;;;;19.22;45.53;101134.00;5016027;28;20491;-72
2023/05/16 02:10:16;;;;;;;152.02;63.42;;;;;;;19.21;45.41;101127.88;5018517;28;20026;-72
2023/05/16 02:12:41;;;;;;;139.05;60.40;;;;;;;19.20;45.89;101131.44;4994826;28;20030;-72
2023/05/16 02:15:07;;;;;;;136.27;61.22;;;;;;;19.21;45.59;101132.28;5015053;28;20174;-72
2023/05/16 02:17:33;;;;;;;135.68;60.05;;;;;;;19.21;45.22;101127.00;5036089;28;20024;-72
2023/05/16 02:20:05;;;;;;;136.10;60.20;;;;;;;19.21;45.67;101127.00;5051679;28;20367;-72
2023/05/16 02:22:30;;;;;;;137.05;60.33;;;;;;;19.20;45.11;101120.00;5017455;28;20021;-72
2023/05/16 02:24:56;;;;;;;146.55;61.80;;;;;;;19.20;45.09;101120.00;4996662;28;20569;-72
2023/05/16 02:27:21;;;;;;;136.32;61.08;;;;;;;19.20;45.68;101125.28;5013216;28;20112;-72
2023/05/16 02:29:46;;;;;;;138.23;60.47;;;;;;;19.19;45.81;101123.56;5032985;28;20111;-72
2023/05/16 02:32:11;;;;;;;143.57;59.95;;;;;;;19.18;45.26;101121.84;5045982;28;20071;-72
2023/05/16 02:34:37;;;;;;;150.38;61.85;;;;;;;19.18;45.37;101132.44;5017885;28;20101;-72
2023/05/16 02:37:02;;;;;;;139.82;60.50;;;;;;;19.17;45.98;101134.22;5013872;28;20062;-72
2023/05/16 02:39:28;;;;;;;136.23;60.88;;;;;;;19.17;45.29;101136.00;5033683;28;20033;-72
2023/05/16 02:41:54;;;;;;;138.25;60.75;;;;;;;19.16;45.10;101131.66;5023104;28;20033;-72
2023/05/16 02:44:19;;;;;;;151.50;62.35;;;;;;;19.15;45.73;101132.59;5020842;28;20032;-72
2023/05/16 02:46:45;;;;;;;139.93;60.53;;;;;;;19.15;45.23;101148.47;5019881;28;20025;-74
2023/05/16 02:49:10;;;;;;;138.77;60.60;;;;;;;19.14;45.62;101142.31;5013836;28;20033;-73
2023/05/16 02:51:35;;;;;;;136.73;61.03;;;;;;;19.15;45.68;101159.91;5023324;28;20032;-73
2023/05/16 02:54:01;;;;;;;141.48;60.25;;;;;;;19.14;45.54;101147.63;5004052;28;20032;-73
2023/05/16 02:56:26;;;;;;;139.30;61.25;;;;;;;19.14;45.64;101157.34;5022184;28;20025;-73
2023/05/16 02:58:53;;;;;;;136.80;61.08;;;;;;;19.13;45.44;101145.91;5038999;28;20021;-73
2023/05/16 03:01:19;;;;;;;139.50;61.95;;;;;;;19.14;45.95;101152.03;5025795;28;20037;-73
2023/05/16 03:03:44;;;;;;;136.85;59.13;;;;;;;19.12;45.27;101157.41;5032393;28;20486;-73
2023/05/16 03:06:09;;;;;;;152.65;61.40;;;;;;;19.12;45.50;101154.75;5029282;28;20036;-73
2023/05/16 03:08:35;;;;;;;138.10;60.33;;;;;;;19.12;45.65;101175.94;5039708;28;20017;-73
2023/05/16 03:11:01;;;;;;;139.93;60.60;;;;;;;19.12;45.82;101172.44;5029588;28;20036;-73
2023/05/16 03:13:27;;;;;;;135.32;59.47;;;;;;;19.11;45.52;101165.41;4999937;28;20029;-73
2023/05/16 03:15:52;;;;;;;133.68;59.38;;;;;;;19.10;45.50;101167.19;5039235;28;20017;-73
2023/05/16 03:18:18;;;;;;;133.57;59.60;;;;;;;19.11;44.99;101173.38;5014580;28;20056;-73
2023/05/16 03:20:43;;;;;;;135.40;59.55;;;;;;;19.10;45.49;101164.53;5030076;28;20028;-74
2023/05/16 03:23:09;;;;;;;139.60;60.90;;;;;;;19.09;45.54;101171.63;5021409;28;20049;-73
2023/05/16 03:25:35;;;;;;;139.27;60.20;;;;;;;19.09;45.30;101174.28;5020701;28;20034;-73
2023/05/16 03:28:04;;;;;;;142.55;61.53;;;;;;;19.09;45.18;101179.56;5003283;28;20108;-73
2023/05/16 03:30:29;;;;;;;138.30;61.30;;;;;;;19.09;45.49;101176.94;5038592;28;20029;-73
2023/05/16 03:32:55;;;;;;;152.40;61.85;;;;;;;19.07;45.54;101176.16;5028134;28;20033;-73
2023/05/16 03:35:20;;;;;;;137.15;59.80;;;;;;;19.07;45.25;101189.41;5013229;28;20025;-73
2023/05/16 03:37:46;;;;;;;141.48;60.83;;;;;;;19.07;45.48;101185.88;5008925;28;20030;-73
2023/05/16 03:40:11;;;;;;;141.82;60.30;;;;;;;19.07;44.78;101186.75;5005840;28;20526;-73
2023/05/16 03:42:37;;;;;;;137.93;59.83;;;;;;;19.07;44.75;101186.75;4996997;28;20095;-73
2023/05/16 03:45:05;;;;;;;137.20;60.05;;;;;;;19.07;45.50;101177.91;5003739;28;20506;-73
2023/05/16 03:47:30;;;;;;;146.18;61.20;;;;;;;19.06;45.46;101179.72;5010835;28;20560;-73
2023/05/16 03:49:56;;;;;;;139.60;59.88;;;;;;;19.07;44.76;101185.88;5026330;28;20039;-73
2023/05/16 03:52:22;;;;;;;143.35;61.25;;;;;;;19.06;45.48;101192.97;5017114;28;20032;-72
2023/05/16 03:54:47;;;;;;;137.23;59.22;;;;;;;19.07;44.97;101186.75;5009638;28;20045;-73
2023/05/16 03:57:12;;;;;;;136.75;60.08;;;;;;;19.07;45.46;101201.75;5050878;28;20032;-73
2023/05/16 03:59:38;;;;;;;130.75;60.03;;;;;;;19.07;45.37;101196.44;5028247;28;20189;-73
2023/05/16 04:02:03;;;;;;;144.55;60.13;;;;;;;19.07;45.25;101197.34;5013785;28;20982;-73
2023/05/16 04:04:29;;;;;;;141.35;62.00;;;;;;;19.08;45.51;101206.97;5024666;28;20033;-73
2023/05/16 04:06:54;;;;;;;137.63;59.72;;;;;;;19.07;45.35;101204.41;5037451;28;20071;-73
2023/05/16 04:09:19;;;;;;;137.85;59.25;;;;;;;19.08;44.91;101196.38;5027934;28;20021;-73
2023/05/16 04:11:45;;;;;;;141.18;60.53;;;;;;;19.08;44.85;101196.38;5015309;28;20071;-72
2023/05/16 04:14:10;;;;;;;159.70;63.03;;;;;;;19.10;45.34;101204.25;5018526;28;20422;-72
2023/05/16 04:16:35;;;;;;;143.85;61.30;;;;;;;19.12;44.96;101212.16;5034415;28;20339;-72
2023/05/16 04:19:02;;;;;;;141.10;61.00;;;;;;;19.13;45.24;101214.72;5035985;28;20071;-71
2023/05/16 04:21:28;;;;;;;138.10;59.90;;;;;;;19.12;44.75;101218.31;5016288;28;20104;-72
2023/05/16 04:23:53;;;;;;;141.73;60.40;;;;;;;19.14;44.87;101220.88;5015904;28;20532;-72
2023/05/16 04:26:20;;;;;;;154.98;62.42;;;;;;;19.14;44.45;101220.88;4995650;28;20037;-71
2023/05/16 04:28:46;;;;;;;140.13;59.05;;;;;;;19.16;44.87;101222.53;5025516;28;20033;-72
2023/05/16 04:31:13;;;;;;;150.35;61.63;;;;;;;19.18;44.61;101222.47;5010185;28;20025;-71
2023/05/16 04:33:38;;;;;;;141.52;60.40;;;;;;;19.17;44.18;101223.38;5029268;28;20029;-71
2023/05/16 04:36:04;;;;;;;144.07;60.42;;;;;;;19.21;44.86;101222.31;4994928;28;20044;-71
2023/05/16 04:38:30;;;;;;;138.10;59.95;;;;;;;19.22;44.73;101229.34;5013218;28;20021;-71
2023/05/16 04:40:56;;;;;;;146.30;61.55;;;;;;;19.25;44.51;101239.78;5043090;28;20105;-72
2023/05/16 04:43:21;;;;;;;142.57;60.75;;;;;;;19.27;44.42;101231.81;5028426;28;20057;-71
2023/05/16 04:45:47;;;;;;;150.93;62.22;;;;;;;19.30;44.60;101240.47;5035285;28;20097;-71
2023/05/16 04:48:13;;;;;;;144.02;59.88;;;;;;;19.32;43.88;101240.38;5028731;28;20049;-71
2023/05/16 04:50:38;;;;;;;154.52;62.63;;;;;;;19.33;44.55;101242.97;5027977;28;20032;-71
2023/05/16 04:53:03;;;;;;;138.70;60.08;;;;;;;19.33;44.44;101248.25;5049746;28;20044;-71
2023/05/16 04:55:29;;;;;;;145.88;61.83;;;;;;;19.35;44.04;101246.41;5044430;28;20024;-71
2023/05/16 04:57:54;;;;;;;143.80;60.88;;;;;;;19.33;44.13;101247.41;5024358;28;20029;-71
2023/05/16 05:00:20;;;;;;;141.75;61.10;;;;;;;19.33;43.77;101258.00;5019137;28;20530;-71
2023/05/16 05:02:45;;;;;;;135.80;59.95;;;;;;;19.35;44.01;101256.16;5027721;28;20021;-71
2023/05/16 05:05:11;;;;;;;139.80;60.28;;;;;;;19.38;44.40;101256.88;5048258;28;20061;-71
2023/05/16 05:07:36;;;;;;;142.48;60.03;;;;;;;19.41;44.10;101259.41;5031542;28;20025;-71
2023/05/16 05:10:01;;;;;;;138.52;59.63;;;;;;;19.41;44.27;101264.69;5003992;28;20120;-71
2023/05/16 05:12:27;;;;;;;136.52;59.55;;;;;;;19.42;44.01;101269.06;5005367;28;20500;-71
2023/05/16 05:14:53;;;;;;;137.95;61.75;;;;;;;19.45;43.86;101272.50;5034928;28;20021;-71
2023/05/16 05:17:19;;;;;;;130.15;59.67;;;;;;;19.49;43.85;101266.16;5035271;28;20025;-71
2023/05/16 05:19:45;;;;;;;139.05;60.05;;;;;;;19.50;44.09;101270.53;5024146;28;20030;-71
2023/05/16 05:22:11;;;;;;;148.25;63.08;;;;;;;19.49;44.05;101266.16;5000018;28;20398;-73
2023/05/16 05:24:36;;;;;;;132.60;60.05;;;;;;;19.45;43.71;101273.34;5040040;28;20115;-71
2023/05/16 05:27:01;;;;;;;139.57;60.30;;;;;;;19.41;43.94;101272.66;5020005;28;20029;-71
2023/05/16 05:29:27;;;;;;;136.35;60.20;;;;;;;19.40;44.24;101275.34;5000738;28;20022;-71
2023/05/16 05:31:52;;;;;;;131.07;58.97;;;;;;;19.39;44.03;101286.88;5021702;28;20110;-70
2023/05/16 05:34:17;;;;;;;155.80;63.00;;;;;;;19.39;44.28;101278.94;5045578;28;20389;-70
2023/05/16 05:36:43;;;;;;;147.38;61.20;;;;;;;19.43;44.09;101286.66;5032091;28;20032;-70
2023/05/16 05:39:08;;;;;;;139.73;60.22;;;;;;;19.48;44.27;101293.56;5013375;28;20073;-71
2023/05/16 05:41:34;;;;;;;139.73;60.00;;;;;;;19.49;44.21;101295.28;5021932;28;20020;-71
2023/05/16 05:43:59;;;;;;;140.98;60.45;;;;;;;19.50;43.90;101283.75;5034595;28;20024;-71
2023/05/16 05:46:25;;;;;;;136.45;60.08;;;;;;;19.53;44.32;101284.47;5034479;28;20050;-71
2023/05/16 05:48:50;;;;;;;134.48;58.60;;;;;;;19.53;43.87;101291.56;5017784;28;20026;-71
2023/05/16 05:51:16;;;;;;;139.50;61.28;;;;;;;19.55;43.64;101287.03;5034657;28;20505;-71
2023/05/16 05:53:42;;;;;;;136.23;58.88;;;;;;;19.59;44.08;101291.28;5023050;28;20486;-71
2023/05/16 05:56:07;;;;;;;136.45;59.78;;;;;;;19.61;43.68;101289.44;4999412;28;20032;-71
2023/05/16 05:58:32;;;;;;;139.13;60.58;;;;;;;19.61;43.68;101294.75;5016147;28;20056;-71
2023/05/16 06:00:58;;;;;;;136.88;60.00;;;;;;;19.59;43.34;101296.56;5007218;28;20022;-71
2023/05/16 06:03:23;;;;;;;134.93;60.22;;;;;;;19.56;43.94;101294.06;5023299;28;20021;-71
2023/05/16 06:05:48;;;;;;;135.90;59.88;;;;;;;19.53;44.15;101302.16;5031382;28;20028;-71
2023/05/16 06:08:14;;;;;;;140.32;60.35;;;;;;;19.50;44.24;101303.16;5046985;28;20037;-71
2023/05/16 06:10:39;;;;;;;137.93;61.00;;;;;;;19.48;43.81;101304.16;5022305;28;20022;-71
2023/05/16 06:13:04;;;;;;;136.98;60.70;;;;;;;19.46;44.20;101306.88;5051506;28;20062;-71
2023/05/16 06:15:30;;;;;;;138.30;60.53;;;;;;;19.46;44.38;101313.97;5024455;28;20079;-71
2023/05/16 06:17:55;;;;;;;142.35;60.72;;;;;;;19.48;44.02;101309.44;5042505;28;20042;-71
2023/05/16 06:20:21;;;;;;;133.07;59.53;;;;;;;19.49;44.10;101314.69;5003778;28;20028;-71
2023/05/16 06:22:46;;;;;;;144.65;61.65;;;;;;;19.56;43.99;101312.63;5043151;28;20021;-71
2023/05/16 06:25:12;;;;;;;157.95;63.33;;;;;;;19.60;43.96;101306.25;5014856;28;20017;-71
2023/05/16 06:27:37;;;;;;;139.95;59.85;;;;;;;19.66;43.55;101313.06;5028355;28;20025;-71
2023/05/16 06:30:03;;;;;;;147.93;62.00;;;;;;;19.75;43.38;101308.22;5020454;28;20482;-71
2023/05/16 06:32:28;;;;;;;138.93;59.55;;;;;;;19.85;43.17;101315.78;5011604;28;20032;-71
2023/05/16 06:34:53;;;;;;;137.00;59.38;;;;;;;20.00;42.99;101312.44;5004469;28;20033;-71
2023/05/16 06:37:19;;;;;;;155.05;63.22;;;;;;;20.27;42.58;101320.03;4995317;28;20382;-71
2023/05/16 06:39:44;;;;;;;140.00;59.95;;;;;;;20.79;41.33;101321.16;5001569;28;20028;-72
2023/05/16 06:42:10;;;;;;;162.30;63.80;;;;;;;21.27;40.38;101328.44;5010967;28;20034;-72
2023/05/16 06:44:35;;;;;;;138.35;61.08;;;;;;;21.65;39.63;101316.81;5008483;28;20083;-72
2023/05/16 06:47:00;;;;;;;140.63;59.83;;;;;;;21.97;38.47;101327.50;5042859;28;20478;-72
2023/05/16 06:49:26;;;;;;;136.60;58.35;;;;;;;22.22;38.59;101326.16;5039279;28;20024;-72
2023/05/16 06:51:51;;;;;;;139.02;59.83;;;;;;;22.36;38.09;101342.25;5022645;28;20437;-72
2023/05/16 06:54:16;;;;;;;156.70;61.80;;;;;;;22.38;38.39;101340.34;5026323;28;20028;-72
2023/05/16 06:56:42;;;;;;;146.35;61.80;;;;;;;22.17;38.96;101339.72;5033333;28;20033;-71
2023/05/16 06:59:07;;;;;;;139.35;59.28;;;;;;;21.86;39.46;101345.84;5024538;28;20104;-70
2023/05/16 07:01:32;;;;;;;142.50;60.72;;;;;;;21.55;39.92;101352.78;5046539;28;20033;-70
2023/05/16 07:03:58;;;;;;;144.00;65.13;;;;;;;21.26;40.31;101355.09;5027063;23;20038;-80
2023/05/16 07:06:23;;;;;;;140.10;62.25;;;;;;;21.17;40.83;101347.59;5017131;28;20018;-79
2023/05/16 07:08:49;;;;;;;144.27;63.10;;;;;;;21.31;40.42;101357.50;5011163;28;20054;-79
2023/05/16 07:11:14;;;;;;;144.85;61.35;;;;;;;21.85;39.10;101349.44;4998668;28;20133;-79
2023/05/16 07:13:40;;;;;;;142.02;61.15;;;;;;;22.34;38.21;101352.09;5004944;28;20030;-79
2023/05/16 07:16:07;;;;;;;140.20;61.80;;;;;;;22.85;37.66;101351.06;4993556;28;20027;-79
2023/05/16 07:18:32;;;;;;;141.85;62.13;;;;;;;23.08;37.04;101355.03;4979380;28;20022;-79
2023/05/16 07:20:58;;;;;;;158.98;63.70;;;;;;;23.26;36.98;101361.13;4978113;28;20121;-79
2023/05/16 07:23:23;;;;;;;133.10;59.63;;;;;;;23.45;36.51;101356.44;5001229;28;20456;-79
2023/05/16 07:25:48;;;;;;;144.25;62.08;;;;;;;23.54;35.86;101362.16;4995546;28;20160;-78
2023/05/16 07:28:14;;;;;;;142.07;62.00;;;;;;;23.51;36.33;101367.69;4996402;28;20054;-79
2023/05/16 07:30:39;;;;;;;144.10;64.88;;;;;;;23.17;37.35;101357.19;4997526;28;20106;-79
2023/05/16 07:33:04;;;;;;;133.90;62.33;;;;;;;22.93;37.03;101371.00;4999056;28;20049;-79
2023/05/16 07:35:30;;;;;;;146.13;69.20;;;;;;;23.10;37.09;101358.50;4997401;28;20042;-78
2023/05/16 07:37:55;;;;;;;148.73;66.10;;;;;;;23.36;36.96;101356.13;4995058;28;20110;-79
2023/05/16 07:40:24;;;;;;;140.80;60.78;;;;;;;23.54;36.06;101363.00;4995867;28;20022;-79
2023/05/16 07:42:52;;;;;;;146.60;62.13;;;;;;;23.72;35.91;101355.69;4998653;28;20180;-79
2023/05/16 07:45:18;;;;;;;147.77;62.55;;;;;;;23.86;36.11;101353.97;4996907;28;20034;-78
2023/05/16 07:47:43;;;;;;;141.23;61.70;;;;;;;23.90;35.67;101361.75;5011571;28;20027;-79
2023/05/16 07:50:09;;;;;;;150.13;63.45;;;;;;;23.78;36.09;101365.13;4994314;28;20033;-80
2023/05/16 07:52:35;;;;;;;142.02;65.45;;;;;;;23.62;36.38;101362.53;4978829;28;20018;-79
2023/05/16 07:55:00;;;;;;;143.18;65.95;;;;;;;23.51;36.15;101365.00;4979039;28;20030;-79
2023/05/16 07:57:26;;;;;;;145.02;62.65;;;;;;;23.63;36.54;101369.59;4977178;28;20023;-78
2023/05/16 07:59:51;;;;;;;144.15;61.72;;;;;;;23.79;36.37;101365.03;4997363;28;20466;-78
2023/05/16 08:02:17;;;;;;;143.15;61.60;;;;;;;23.89;35.97;101361.84;4995129;28;20484;-79
2023/05/16 08:04:42;;;;;;;142.27;61.75;;;;;;;23.98;35.59;101365.72;4977684;28;20113;-79
2023/05/16 08:07:08;;;;;;;138.82;61.25;;;;;;;24.04;35.35;101360.88;4994149;28;20034;-78
2023/05/16 08:09:34;;;;;;;141.48;60.95;;;;;;;24.08;35.42;101370.41;4995149;28;20026;-77
2023/05/16 08:12:02;;;;;;;134.15;60.40;;;;;;;24.12;35.46;101365.75;4995977;28;20347;-79
2023/05/16 08:14:31;;;;;;;142.57;62.00;;;;;;;24.07;35.34;101366.00;4993109;28;20033;-79
2023/05/16 08:16:58;;;;;;;140.95;61.30;;;;;;;24.09;35.59;101371.25;4995044;28;20390;-78
2023/05/16 08:19:23;;;;;;;146.65;62.10;;;;;;;23.75;36.17;101374.19;4995065;28;20024;-78
2023/05/16 08:21:48;;;;;;;136.70;60.60;;;;;;;23.38;37.44;101392.41;4990887;28;20027;-78
2023/05/16 08:24:14;;;;;;;158.88;63.88;;;;;;;23.05;37.80;101393.38;4991558;28;20396;-78
2023/05/16 08:26:39;;;;;;;144.65;66.05;;;;;;;22.79;38.06;101390.41;4993845;28;20107;-78
2023/05/16 08:29:05;;;;;;;146.25;67.75;;;;;;;22.83;37.80;101393.75;4992793;28;20054;-78
2023/05/16 08:31:31;;;;;;;144.60;67.45;;;;;;;23.04;38.26;101397.00;4993844;28;20101;-79
2023/05/16 08:33:56;;;;;;;141.30;61.38;;;;;;;23.16;37.08;101394.59;4975266;28;20038;-78
2023/05/16 08:36:22;;;;;;;155.27;63.65;;;;;;;23.26;36.10;101391.31;4978904;28;20021;-79
2023/05/16 08:38:49;;;;;;;155.48;64.40;;;;;;;22.86;34.90;101390.06;4981442;28;20038;-78
2023/05/16 08:41:14;;;;;;;144.55;62.88;;;;;;;22.31;34.91;101386.84;4994123;28;20030;-77
2023/05/16 08:43:39;;;;;;;133.95;61.58;;;;;;;21.96;35.79;101389.59;4975064;28;20026;-77
2023/05/16 08:46:06;;;;;;;146.68;63.60;;;;;;;21.85;33.64;101390.16;4991942;28;20026;-76
2023/05/16 08:48:32;;;;;;;150.73;65.38;;;;;;;21.75;34.70;101392.47;4994529;28;20031;-78
2023/05/16 08:50:57;;;;;;;163.23;64.15;;;;;;;21.88;34.30;101387.38;4995256;28;20022;-78
2023/05/16 08:53:29;;;;;;;142.32;64.00;;;;;;;21.89;33.31;101378.44;4994881;28;20030;-77
2023/05/16 08:55:54;;;;;;;134.02;60.20;;;;;;;21.87;34.09;101376.78;4992102;28;20507;-77
2023/05/16 08:58:20;;;;;;;157.35;64.22;;;;;;;21.90;33.50;101371.34;4979789;28;20042;-78
2023/05/16 09:00:45;;;;;;;170.45;66.18;;;;;;;21.82;33.77;101381.50;4992931;28;20026;-78
2023/05/16 09:03:11;;;;;;;151.57;67.63;;;;;;;21.96;34.33;101370.97;4991196;28;20034;-77
2023/05/16 09:05:37;;;;;;;148.82;67.20;;;;;;;22.15;33.10;101372.66;4996426;28;20053;-79
2023/05/16 09:08:02;;;;;;;156.38;70.47;;;;;;;22.16;32.05;101377.91;4978143;28;20026;-78
2023/05/16 09:10:27;;;;;;;158.02;69.65;;;;;;;21.90;34.02;101379.31;4993794;28;20045;-77
2023/05/16 09:12:53;;;;;;;148.23;68.95;;;;;;;21.90;33.85;101379.31;4995628;28;20092;-78
2023/05/16 09:15:20;;;;;;;147.98;69.25;;;;;;;21.95;32.93;101374.56;4978057;28;20180;-79
2023/05/16 09:17:46;;;;;;;148.13;66.03;;;;;;;21.95;34.01;101369.25;4988292;28;20053;-78
2023/05/16 09:20:16;;;;;;;163.25;69.15;;;;;;;21.86;33.06;101375.09;4995952;28;20037;-78
2023/05/16 09:22:57;;;;;;;151.02;69.07;;;;;;;21.82;32.75;101381.50;4992850;28;20033;-78
2023/05/16 09:25:25;;;;;;;148.82;68.35;;;;;;;21.85;33.63;101371.56;4996070;28;20030;-79
2023/05/16 09:27:54;;;;;;;143.68;67.38;;;;;;;21.87;32.39;101377.66;4978598;28;20030;-78
2023/05/16 09:30:22;;;;;;;145.25;66.05;;;;;;;21.55;33.34;101395.28;4992096;28;20034;-79
2023/05/16 09:32:50;;;;;;;147.75;67.53;;;;;;;21.48;33.34;101388.56;4995644;28;20033;-79
2023/05/16 09:35:16;;;;;;;149.50;67.13;;;;;;;21.35;32.60;101393.63;4994895;28;20026;-78
2023/05/16 09:37:48;;;;;;;155.38;68.35;;;;;;;21.16;32.22;101388.38;4993428;28;20023;-78
2023/05/16 09:40:15;;;;;;;149.75;69.35;;;;;;;20.98;34.36;101396.28;4992740;28;20397;-78
2023/05/16 09:42:42;;;;;;;151.40;68.10;;;;;;;20.91;34.35;101389.56;4993645;28;20049;-79
2023/05/16 09:45:12;;;;;;;145.10;67.10;;;;;;;20.75;34.76;101395.63;4978239;28;20446;-77
2023/05/16 09:47:44;;;;;;;156.98;75.68;;;;;;;20.68;34.16;101391.56;4973257;28;20027;-76
2023/05/16 09:50:10;;;;;;;145.48;70.00;;;;;;;20.72;36.41;101390.47;4989047;28;20058;-74
2023/05/16 09:52:36;;;;;;;154.77;73.15;;;;;;;20.85;36.92;101389.88;4993083;28;20069;-75
2023/05/16 09:55:03;;;;;;;142.48;62.08;;;;;;;20.91;37.77;101394.88;4988438;28;20305;-74
2023/05/16 09:57:29;;;;;;;135.00;61.22;;;;;;;20.97;37.81;101386.63;4984364;28;20022;-76
2023/05/16 10:00:00;;;;;;;140.43;60.88;;;;;;;20.98;37.99;101393.66;4990351;28;20038;-77
2023/05/16 10:02:25;;;;;;;150.52;62.35;;;;;;;20.94;38.54;101405.34;4990364;28;20019;-77
2023/05/16 10:04:50;;;;;;;153.32;63.35;;;;;;;20.92;38.60;101412.53;4974916;28;20502;-75
2023/05/16 10:07:16;;;;;;;146.48;62.13;;;;;;;20.96;38.76;101411.47;4992790;28;20443;-75
2023/05/16 10:09:42;;;;;;;146.13;62.75;;;;;;;21.01;38.71;101411.22;4987722;28;20027;-76
2023/05/16 10:12:11;;;;;;;158.23;64.00;;;;;;;21.09;38.81;101419.69;4993039;28;20026;-75
2023/05/16 10:14:38;;;;;;;149.93;63.13;;;;;;;21.14;38.95;101422.13;4994517;28;20116;-76
2023/05/16 10:17:06;;;;;;;145.55;63.05;;;;;;;21.13;39.17;101423.06;4973309;28;20105;-76
2023/05/16 10:19:35;;;;;;;147.23;62.30;;;;;;;21.15;38.79;101410.56;4992766;28;20022;-75
2023/05/16 10:22:03;;;;;;;142.70;65.30;;;;;;;21.18;38.73;101413.91;4992344;28;20074;-76
2023/05/16 10:24:40;;;;;;;142.52;65.15;;;;;;;21.28;38.61;101414.31;4993927;28;20033;-75
2023/05/16 10:27:06;;;;;;;152.52;70.68;;;;;;;21.31;38.71;101408.00;4992953;28;20038;-76
2023/05/16 10:29:31;;;;;;;144.20;61.83;;;;;;;21.39;38.91;101398.72;4990559;28;20025;-77
2023/05/16 10:31:58;;;;;;;140.40;65.57;;;;;;;21.40;39.04;101403.06;4992834;28;20026;-77
2023/05/16 10:34:24;;;;;;;168.00;69.60;;;;;;;21.42;39.42;101406.53;4989560;28;20026;-76
2023/05/16 10:36:49;;;;;;;147.10;67.13;;;;;;;21.47;39.27;101408.94;4975897;28;20062;-77
2023/05/16 10:39:15;;;;;;;138.07;63.17;;;;;;;21.48;39.73;101410.66;4974574;28;20026;-77
2023/05/16 10:41:41;;;;;;;142.35;63.58;;;;;;;21.50;39.29;101413.25;4977406;28;20038;-77
2023/05/16 10:44:13;;;;;;;161.52;69.45;;;;;;;21.44;39.75;101409.94;4976050;28;20024;-75
2023/05/16 10:46:39;;;;;;;146.85;67.93;;;;;;;21.43;39.73;101418.88;5005420;28;20026;-75
2023/05/16 10:49:33;;;;;;;144.95;68.00;;;;;;;21.42;39.66;101425.13;4992132;28;20395;-76
2023/05/16 10:52:04;;;;;;;156.38;66.78;;;;;;;21.44;40.00;101440.97;4973869;28;20401;-78
2023/05/16 10:54:38;;;;;;;140.40;67.40;;;;;;;21.40;39.72;101434.94;4992124;28;20034;-75
2023/05/16 10:57:23;;;;;;;148.23;66.35;;;;;;;21.35;39.83;101442.31;4992097;28;20025;-76
2023/05/16 10:59:50;;;;;;;147.80;65.60;;;;;;;21.32;40.27;101433.63;4991133;28;20045;-73